Time;durP1;ratioP1;P1;durP2;ratioP2;P2;SDS_P1;SDS_P2;PMS_P1;PMS_P2;Temp;Humidity;BMP_temperature;BMP_pressure;BME280_temperature;BME280_humidity;BME280_pressure;Samples;Min_cycle;Max_cycle;Signal;HPM_P1;HPM_P2
2021/10/20 00:01:53;;;;;;;6.07;3.37;;;14.70;99.90;;;;;;5038586;28;20298;-77
2021/10/20 00:04:19;;;;;;;4.60;2.90;;;14.70;99.90;;;;;;5038852;28;20203;-77
2021/10/20 00:06:45;;;;;;;4.90;3.53;;;14.70;99.90;;;;;;5038550;28;20187;-78
2021/10/20 00:09:11;;;;;;;5.50;3.40;;;14.70;99.90;;;;;;5039010;28;20188;-77
2021/10/20 00:11:37;;;;;;;4.23;3.17;;;14.70;99.90;;;;;;5038442;28;20188;-77
2021/10/20 00:14:04;;;;;;;5.27;3.20;;;14.70;99.90;;;;;;5038452;28;20180;-78
2021/10/20 00:16:30;;;;;;;3.80;3.00;;;14.70;99.90;;;;;;5038354;28;20430;-77
2021/10/20 00:18:56;;;;;;;5.63;3.50;;;14.70;99.90;;;;;;5038428;28;20472;-78
2021/10/20 00:21:25;;;;;;;5.20;3.70;;;14.70;99.90;;;;;;5038446;28;20287;-78
2021/10/20 00:23:52;;;;;;;5.37;3.10;;;14.80;99.90;;;;;;5038529;28;20427;-78
2021/10/20 00:26:18;;;;;;;4.50;3.30;;;14.80;99.90;;;;;;5038933;28;20415;-77
2021/10/20 00:28:44;;;;;;;5.00;3.27;;;14.80;99.90;;;;;;5038277;28;20434;-78
2021/10/20 00:31:10;;;;;;;4.30;3.13;;;14.90;99.90;;;;;;5038594;28;20457;-78
2021/10/20 00:33:37;;;;;;;5.90;3.30;;;14.90;99.90;;;;;;5038997;28;20659;-80
2021/10/20 00:36:03;;;;;;;4.97;3.00;;;14.90;99.90;;;;;;5045057;28;20195;-80
2021/10/20 00:38:32;;;;;;;5.10;3.40;;;14.90;99.90;;;;;;5046873;28;20568;-80
2021/10/20 00:40:58;;;;;;;6.97;3.57;;;14.80;99.90;;;;;;5046298;28;20415;-80
2021/10/20 00:43:25;;;;;;;9.23;3.70;;;14.80;99.90;;;;;;5046313;28;20429;-80
2021/10/20 00:45:51;;;;;;;5.03;3.30;;;14.80;99.90;;;;;;5045833;28;20192;-80
2021/10/20 00:48:17;;;;;;;4.93;3.53;;;14.80;99.90;;;;;;5043090;28;20423;-80
2021/10/20 00:50:43;;;;;;;15.07;3.63;;;14.80;99.90;;;;;;5042106;28;20445;-78
2021/10/20 00:53:10;;;;;;;6.50;3.20;;;14.80;99.90;;;;;;5039728;28;20709;-78
2021/10/20 00:55:36;;;;;;;4.40;3.13;;;14.80;99.90;;;;;;5040427;28;20538;-78
2021/10/20 00:58:04;;;;;;;4.80;3.50;;;14.70;99.90;;;;;;5041023;28;20433;-77
2021/10/20 01:00:33;;;;;;;6.47;3.23;;;14.70;99.90;;;;;;5040283;28;20462;-78
2021/10/20 01:02:59;;;;;;;5.60;3.60;;;14.70;99.90;;;;;;5040824;28;20929;-78
2021/10/20 01:05:26;;;;;;;5.73;3.40;;;14.70;99.90;;;;;;5039059;28;20443;-78
2021/10/20 01:07:52;;;;;;;3.90;2.67;;;14.70;99.90;;;;;;5038727;28;20426;-78
2021/10/20 01:10:17;;;;;;;6.03;3.60;;;14.60;99.90;;;;;;5039014;28;20423;-78
2021/10/20 01:12:43;;;;;;;5.20;3.43;;;14.60;99.90;;;;;;5038482;28;20659;-78
2021/10/20 01:15:11;;;;;;;4.07;2.93;;;14.60;99.90;;;;;;5040228;28;20566;-78
2021/10/20 01:17:37;;;;;;;4.90;3.00;;;14.50;99.90;;;;;;5042400;28;20418;-78
2021/10/20 01:20:05;;;;;;;4.93;3.67;;;14.50;99.90;;;;;;5040967;28;20478;-78
2021/10/20 01:22:32;;;;;;;4.20;3.27;;;14.50;99.90;;;;;;5040881;28;20176;-78
2021/10/20 01:24:59;;;;;;;4.87;3.43;;;14.50;99.90;;;;;;5041061;28;20445;-78
2021/10/20 01:27:25;;;;;;;7.47;3.93;;;14.50;99.90;;;;;;5041463;28;20418;-78
2021/10/20 01:29:52;;;;;;;5.53;3.47;;;14.40;99.90;;;;;;5041707;28;20494;-78
2021/10/20 01:32:17;;;;;;;5.17;3.30;;;14.40;99.90;;;;;;5041024;28;20411;-78
2021/10/20 01:34:43;;;;;;;5.43;3.53;;;14.50;99.90;;;;;;5042143;28;20442;-78
2021/10/20 01:37:09;;;;;;;4.33;2.90;;;14.40;99.90;;;;;;5042045;28;20658;-79
2021/10/20 01:39:35;;;;;;;4.77;2.97;;;14.40;99.90;;;;;;5041413;28;20227;-78
2021/10/20 01:42:02;;;;;;;4.50;3.03;;;14.40;99.90;;;;;;5042300;28;20473;-79
2021/10/20 01:44:28;;;;;;;8.77;3.50;;;14.40;99.90;;;;;;5042325;28;20204;-78
2021/10/20 01:46:54;;;;;;;6.53;3.80;;;14.40;99.90;;;;;;5042245;28;20484;-78
2021/10/20 01:49:20;;;;;;;4.80;3.20;;;14.40;99.90;;;;;;5041130;28;20214;-78
2021/10/20 01:51:46;;;;;;;5.00;3.83;;;14.40;99.90;;;;;;5041417;28;20785;-79
2021/10/20 01:54:13;;;;;;;7.03;3.50;;;14.40;99.90;;;;;;5041388;28;20443;-78
2021/10/20 01:56:39;;;;;;;5.47;3.70;;;14.40;99.90;;;;;;5041721;28;20184;-78
2021/10/20 01:59:05;;;;;;;4.60;3.50;;;14.40;99.90;;;;;;5040214;28;20466;-79
2021/10/20 02:01:31;;;;;;;5.13;3.47;;;14.40;99.90;;;;;;5041444;28;20486;-78
2021/10/20 02:03:57;;;;;;;6.57;3.93;;;14.40;99.90;;;;;;5041617;28;20234;-78
2021/10/20 02:06:23;;;;;;;6.67;3.80;;;14.40;99.90;;;;;;5041396;28;20275;-78
2021/10/20 02:08:49;;;;;;;5.33;3.93;;;14.40;99.90;;;;;;5041858;28;20419;-78
2021/10/20 02:11:19;;;;;;;5.30;3.37;;;14.40;99.90;;;;;;5041586;28;20435;-78
2021/10/20 02:13:45;;;;;;;6.23;3.37;;;14.40;99.90;;;;;;5040973;28;20474;-79
2021/10/20 02:16:11;;;;;;;5.20;3.57;;;14.30;99.90;;;;;;5040826;28;20455;-78
2021/10/20 02:18:37;;;;;;;5.97;4.20;;;14.40;99.90;;;;;;5042099;28;20465;-78
2021/10/20 02:21:03;;;;;;;5.40;3.83;;;14.40;99.90;;;;;;5041734;28;20435;-78
2021/10/20 02:23:31;;;;;;;4.80;3.10;;;14.40;99.90;;;;;;5041115;28;20481;-78
2021/10/20 02:25:57;;;;;;;7.30;3.90;;;14.30;99.90;;;;;;5040808;28;20439;-78
2021/10/20 02:28:23;;;;;;;6.00;3.40;;;14.30;99.90;;;;;;5040767;28;20492;-78
2021/10/20 02:30:48;;;;;;;5.87;3.97;;;14.30;99.90;;;;;;5041472;28;20510;-78
2021/10/20 02:33:14;;;;;;;6.57;3.80;;;14.30;99.90;;;;;;5041229;28;20214;-78
2021/10/20 02:35:40;;;;;;;6.57;4.17;;;14.30;99.90;;;;;;5040524;28;20211;-78
2021/10/20 02:38:06;;;;;;;7.93;3.80;;;14.30;99.90;;;;;;5041416;28;20207;-78
2021/10/20 02:40:32;;;;;;;6.50;4.07;;;14.30;99.90;;;;;;5040720;28;20418;-78
2021/10/20 02:42:58;;;;;;;6.50;3.80;;;14.30;99.90;;;;;;5041788;28;20176;-78
2021/10/20 02:45:23;;;;;;;5.57;3.50;;;14.30;99.90;;;;;;5040725;28;20192;-78
2021/10/20 02:47:49;;;;;;;5.43;3.80;;;14.30;99.90;;;;;;5040166;28;20184;-78
2021/10/20 02:50:15;;;;;;;7.23;3.70;;;14.20;99.90;;;;;;5040270;28;20188;-78
2021/10/20 02:52:41;;;;;;;7.03;3.90;;;14.20;99.90;;;;;;5040177;28;20215;-78
2021/10/20 02:55:07;;;;;;;7.00;4.80;;;14.20;99.90;;;;;;5041036;28;20689;-78
2021/10/20 02:57:34;;;;;;;5.67;3.60;;;14.20;99.90;;;;;;5039444;28;20419;-78
2021/10/20 03:00:00;;;;;;;5.33;4.10;;;14.10;99.90;;;;;;5040463;28;20494;-78
2021/10/20 03:02:26;;;;;;;5.70;4.13;;;14.10;99.90;;;;;;5041023;28;20415;-78
2021/10/20 03:04:52;;;;;;;5.13;3.67;;;14.10;99.90;;;;;;5039877;28;20443;-78
2021/10/20 03:07:18;;;;;;;6.40;3.87;;;14.10;99.90;;;;;;5039324;28;20926;-78
2021/10/20 03:09:44;;;;;;;5.70;3.67;;;14.10;99.90;;;;;;5039976;28;20427;-78
2021/10/20 03:12:10;;;;;;;5.47;3.50;;;14.10;99.90;;;;;;5038633;28;20414;-78
2021/10/20 03:14:36;;;;;;;7.43;3.90;;;14.10;99.90;;;;;;5039956;28;20204;-78
2021/10/20 03:17:02;;;;;;;6.03;4.07;;;14.10;99.90;;;;;;5038604;28;20177;-78
2021/10/20 03:19:28;;;;;;;6.43;3.97;;;14.10;99.90;;;;;;5038710;28;20211;-78
2021/10/20 03:21:53;;;;;;;7.07;4.30;;;14.00;99.90;;;;;;5064118;23;20497;-84
2021/10/20 03:24:19;;;;;;;6.70;4.60;;;14.00;99.90;;;;;;5054306;28;20194;-85
2021/10/20 03:26:45;;;;;;;6.30;3.90;;;14.00;99.90;;;;;;5069299;28;20425;-84
2021/10/20 03:29:10;;;;;;;6.13;4.20;;;14.00;99.90;;;;;;5069170;28;20180;-84
2021/10/20 03:31:36;;;;;;;7.10;4.03;;;14.00;99.90;;;;;;5063146;28;20219;-82
2021/10/20 03:34:02;;;;;;;6.00;4.27;;;14.00;99.90;;;;;;5032236;28;20184;-82
2021/10/20 03:36:28;;;;;;;5.80;3.93;;;14.00;99.90;;;;;;5049105;28;20180;-84
2021/10/20 03:38:54;;;;;;;7.00;4.27;;;14.00;99.90;;;;;;5032165;28;20985;-84
2021/10/20 03:41:20;;;;;;;6.63;4.10;;;14.00;99.90;;;;;;5032322;28;20200;-82
2021/10/20 03:43:45;;;;;;;7.80;3.90;;;14.00;99.90;;;;;;5031843;28;20458;-82
2021/10/20 03:46:11;;;;;;;5.07;4.03;;;14.00;99.90;;;;;;5034165;28;20584;-83
2021/10/20 03:48:36;;;;;;;5.83;4.20;;;13.90;99.90;;;;;;5033932;28;20180;-82
2021/10/20 03:51:02;;;;;;;7.60;4.67;;;13.90;99.90;;;;;;5048619;28;20233;-82
2021/10/20 03:53:28;;;;;;;8.33;5.17;;;13.90;99.90;;;;;;5048275;28;20188;-84
2021/10/20 03:55:54;;;;;;;7.53;4.30;;;13.90;99.90;;;;;;5048251;28;21065;-82
2021/10/20 03:58:20;;;;;;;4.97;3.83;;;13.90;99.90;;;;;;5048793;28;20230;-83
2021/10/20 04:00:46;;;;;;;4.67;3.43;;;13.90;99.90;;;;;;5048350;28;20176;-84
2021/10/20 04:03:12;;;;;;;5.63;3.93;;;13.80;99.90;;;;;;5048254;28;20446;-82
2021/10/20 04:05:37;;;;;;;4.93;3.83;;;13.90;99.90;;;;;;5033253;28;20181;-82
2021/10/20 04:08:03;;;;;;;6.07;3.73;;;13.90;99.90;;;;;;5031572;28;20271;-82
2021/10/20 04:10:29;;;;;;;5.60;3.73;;;13.90;99.90;;;;;;5033002;28;20177;-83
2021/10/20 04:12:55;;;;;;;6.40;4.10;;;14.00;99.90;;;;;;5031416;28;20240;-83
2021/10/20 04:15:23;;;;;;;10.10;3.83;;;14.00;99.90;;;;;;5032877;28;20242;-82
2021/10/20 04:17:49;;;;;;;5.00;3.67;;;14.10;99.90;;;;;;5031547;28;20415;-82
2021/10/20 04:20:18;;;;;;;5.70;3.43;;;14.10;99.90;;;;;;5031183;28;20467;-82
2021/10/20 04:22:45;;;;;;;6.20;3.80;;;14.20;99.90;;;;;;5034197;28;20465;-82
2021/10/20 04:25:11;;;;;;;7.97;3.90;;;14.30;99.90;;;;;;5035286;28;20449;-84
2021/10/20 04:27:38;;;;;;;5.40;4.20;;;14.40;99.90;;;;;;5034927;28;20422;-82
2021/10/20 04:30:06;;;;;;;4.90;3.43;;;14.30;99.90;;;;;;5036497;28;20428;-84
2021/10/20 04:32:31;;;;;;;5.63;3.80;;;14.40;99.90;;;;;;5035740;28;20442;-82
2021/10/20 04:34:57;;;;;;;5.60;4.33;;;14.40;99.90;;;;;;5034582;28;21119;-84
2021/10/20 04:37:25;;;;;;;5.33;3.73;;;14.40;99.90;;;;;;5036172;28;20640;-82
2021/10/20 04:39:58;;;;;;;5.70;4.10;;;14.50;99.90;;;;;;5036205;28;20201;-82
2021/10/20 04:42:25;;;;;;;5.33;3.63;;;14.50;99.90;;;;;;5035557;28;20535;-82
2021/10/20 04:44:51;;;;;;;6.17;4.03;;;14.60;99.90;;;;;;5034022;28;20430;-82
2021/10/20 04:47:17;;;;;;;5.10;3.50;;;14.60;99.90;;;;;;5034528;28;20419;-82
2021/10/20 04:49:43;;;;;;;5.73;3.43;;;14.60;99.90;;;;;;5034637;28;20195;-82
2021/10/20 04:52:09;;;;;;;6.47;3.70;;;14.70;99.90;;;;;;5035761;28;20254;-82
2021/10/20 04:54:35;;;;;;;7.60;3.97;;;14.70;99.90;;;;;;5034011;28;20423;-82
2021/10/20 04:57:00;;;;;;;6.33;3.73;;;14.80;99.90;;;;;;5034144;28;20449;-81
2021/10/20 04:59:31;;;;;;;5.27;3.37;;;14.80;99.90;;;;;;5033976;28;20245;-82
2021/10/20 05:02:00;;;;;;;7.10;3.80;;;14.90;99.90;;;;;;5033695;28;20207;-82
2021/10/20 05:04:26;;;;;;;5.60;3.80;;;14.90;99.90;;;;;;5033789;28;20459;-84
2021/10/20 05:06:51;;;;;;;5.57;3.70;;;15.00;99.90;;;;;;5033998;28;20430;-83
2021/10/20 05:09:17;;;;;;;6.90;3.90;;;15.00;99.90;;;;;;5033496;28;20188;-82
2021/10/20 05:11:43;;;;;;;5.30;3.70;;;15.00;99.90;;;;;;5049651;28;20684;-81
2021/10/20 05:14:08;;;;;;;6.63;4.03;;;15.10;99.90;;;;;;5033086;28;20678;-82
2021/10/20 05:16:34;;;;;;;5.93;4.03;;;15.10;99.90;;;;;;5033417;28;20662;-82
2021/10/20 05:19:00;;;;;;;5.67;4.03;;;15.10;99.90;;;;;;5049874;28;20212;-82
2021/10/20 05:21:25;;;;;;;7.80;3.70;;;15.10;99.90;;;;;;5034318;28;20196;-82
2021/10/20 05:23:51;;;;;;;5.63;4.10;;;15.20;99.90;;;;;;5032806;28;20677;-83
2021/10/20 05:26:18;;;;;;;6.10;3.80;;;15.20;99.90;;;;;;5049681;28;20212;-82
2021/10/20 05:28:44;;;;;;;6.90;3.87;;;15.30;99.90;;;;;;5032847;28;20279;-82
2021/10/20 05:31:10;;;;;;;4.67;3.40;;;15.30;99.90;;;;;;5049578;28;20423;-82
2021/10/20 05:33:35;;;;;;;4.70;3.87;;;15.30;99.90;;;;;;5033122;28;20427;-81
2021/10/20 05:36:01;;;;;;;6.20;3.70;;;15.30;99.90;;;;;;5032930;28;20188;-82
2021/10/20 05:38:27;;;;;;;5.83;4.23;;;15.30;99.90;;;;;;5032972;28;20374;-82
2021/10/20 05:40:52;;;;;;;6.13;3.90;;;15.30;99.90;;;;;;5049370;28;20616;-82
2021/10/20 05:43:19;;;;;;;5.83;4.10;;;15.40;99.90;;;;;;5032420;28;20570;-82
2021/10/20 05:45:45;;;;;;;7.40;4.60;;;15.30;99.90;;;;;;5032607;28;20524;-81
2021/10/20 05:48:11;;;;;;;7.80;4.13;;;15.40;99.90;;;;;;5032672;28;20804;-82
2021/10/20 05:50:37;;;;;;;6.73;4.00;;;15.40;99.90;;;;;;5032639;28;20427;-82
2021/10/20 05:53:03;;;;;;;6.50;4.97;;;15.40;99.90;;;;;;5049190;28;20431;-82
2021/10/20 05:55:28;;;;;;;5.27;4.27;;;15.40;99.90;;;;;;5032576;28;20182;-82
2021/10/20 05:57:54;;;;;;;6.17;4.50;;;15.40;99.90;;;;;;5032472;28;20914;-80
2021/10/20 06:00:20;;;;;;;6.63;4.77;;;15.40;99.90;;;;;;5033721;28;20702;-81
2021/10/20 06:02:45;;;;;;;7.43;4.70;;;15.40;99.90;;;;;;5032189;28;20236;-82
2021/10/20 06:05:11;;;;;;;7.80;4.23;;;15.40;99.90;;;;;;5032098;28;20199;-82
2021/10/20 06:07:41;;;;;;;8.73;5.53;;;15.40;99.90;;;;;;5032246;28;20176;-82
2021/10/20 06:10:08;;;;;;;9.90;4.70;;;15.30;99.90;;;;;;5032531;28;20176;-82
2021/10/20 06:12:33;;;;;;;7.83;4.97;;;15.30;99.90;;;;;;5031792;28;20489;-82
2021/10/20 06:14:59;;;;;;;8.07;5.20;;;15.30;99.90;;;;;;5048607;28;20427;-82
2021/10/20 06:17:24;;;;;;;6.97;4.20;;;15.30;99.90;;;;;;5048624;28;20241;-81
2021/10/20 06:19:50;;;;;;;12.07;5.83;;;15.40;99.90;;;;;;5032159;28;20224;-82
2021/10/20 06:22:16;;;;;;;5.23;3.90;;;15.40;99.90;;;;;;5048196;28;20208;-82
2021/10/20 06:24:42;;;;;;;8.83;4.70;;;15.40;99.90;;;;;;5033210;28;20184;-82
2021/10/20 06:27:07;;;;;;;8.40;5.63;;;15.40;99.90;;;;;;5032991;28;20411;-81
2021/10/20 06:29:33;;;;;;;6.77;5.40;;;15.40;99.90;;;;;;5031949;28;20180;-80
2021/10/20 06:31:59;;;;;;;7.10;4.33;;;15.40;99.90;;;;;;5032622;28;20250;-80
2021/10/20 06:34:25;;;;;;;6.50;4.60;;;15.40;99.90;;;;;;5031771;28;20423;-81
2021/10/20 06:36:50;;;;;;;8.00;5.10;;;15.50;99.90;;;;;;5031581;28;20230;-83
2021/10/20 06:39:20;;;;;;;9.30;4.30;;;15.50;99.90;;;;;;5032778;28;20272;-81
2021/10/20 06:41:47;;;;;;;7.20;4.20;;;15.50;99.90;;;;;;5047864;28;20200;-81
2021/10/20 06:44:13;;;;;;;7.47;4.60;;;15.50;99.90;;;;;;5030800;28;20918;-81
2021/10/20 06:46:39;;;;;;;5.60;4.37;;;15.50;99.90;;;;;;5031157;28;20411;-81
2021/10/20 06:49:04;;;;;;;5.53;4.30;;;15.60;99.90;;;;;;5031488;28;20426;-81
2021/10/20 06:51:30;;;;;;;6.07;4.60;;;15.60;99.90;;;;;;5031188;28;20201;-80
2021/10/20 06:53:56;;;;;;;6.70;4.47;;;15.70;99.90;;;;;;5032381;28;20212;-80
2021/10/20 06:56:21;;;;;;;8.03;4.10;;;15.70;99.90;;;;;;5047827;28;20557;-82
2021/10/20 06:58:47;;;;;;;5.47;4.07;;;15.80;99.90;;;;;;5047651;28;20706;-81
2021/10/20 07:01:12;;;;;;;5.67;4.57;;;15.80;99.90;;;;;;5032370;28;20169;-81
2021/10/20 07:03:38;;;;;;;7.03;4.70;;;15.90;99.90;;;;;;5032039;28;20179;-82
2021/10/20 07:06:03;;;;;;;6.80;4.47;;;15.90;99.90;;;;;;5047751;28;20207;-81
2021/10/20 07:08:29;;;;;;;5.03;3.60;;;15.90;99.90;;;;;;5031109;28;20549;-81
2021/10/20 07:10:55;;;;;;;6.00;4.20;;;15.90;99.90;;;;;;5032292;28;20183;-81
2021/10/20 07:13:20;;;;;;;5.30;3.97;;;16.00;99.90;;;;;;5030534;28;20180;-81
2021/10/20 07:15:47;;;;;;;7.10;5.00;;;16.00;99.90;;;;;;5032389;28;20527;-81
2021/10/20 07:18:14;;;;;;;5.43;4.43;;;16.00;99.90;;;;;;5047668;28;20227;-81
2021/10/20 07:20:39;;;;;;;7.10;4.40;;;16.00;99.90;;;;;;5032199;28;20407;-82
2021/10/20 07:23:05;;;;;;;7.50;4.40;;;16.00;99.90;;;;;;5030457;28;20465;-81
2021/10/20 07:25:30;;;;;;;7.27;4.97;;;16.00;99.90;;;;;;5032046;28;20671;-81
2021/10/20 07:27:56;;;;;;;6.67;4.77;;;16.10;99.90;;;;;;5031328;28;20180;-81
2021/10/20 07:30:22;;;;;;;7.30;4.83;;;16.20;99.90;;;;;;5031565;28;20176;-82
2021/10/20 07:32:47;;;;;;;6.50;4.87;;;16.20;99.90;;;;;;5031497;28;20243;-82
2021/10/20 07:35:15;;;;;;;7.27;4.87;;;16.30;99.90;;;;;;5031521;28;20600;-81
2021/10/20 07:37:41;;;;;;;8.53;4.60;;;16.30;99.90;;;;;;5031352;28;20283;-83
2021/10/20 07:40:09;;;;;;;10.50;4.77;;;16.30;99.90;;;;;;5031345;28;20451;-81
2021/10/20 07:42:37;;;;;;;7.03;5.13;;;16.30;99.90;;;;;;5030926;28;20431;-82
2021/10/20 07:45:07;;;;;;;7.20;4.93;;;16.30;99.90;;;;;;5031252;28;20422;-82
2021/10/20 07:47:33;;;;;;;8.73;4.70;;;16.30;99.90;;;;;;5031596;28;20472;-81
2021/10/20 07:49:59;;;;;;;5.67;4.50;;;16.30;99.90;;;;;;5031222;28;20962;-82
2021/10/20 07:52:28;;;;;;;7.43;4.80;;;16.30;99.90;;;;;;5033988;28;20205;-82
2021/10/20 07:54:53;;;;;;;7.23;5.00;;;16.40;99.90;;;;;;5031479;28;20211;-81
2021/10/20 07:57:19;;;;;;;6.23;4.63;;;16.40;99.90;;;;;;5036232;28;20447;-84
2021/10/20 07:59:45;;;;;;;6.70;5.23;;;16.50;99.90;;;;;;5035954;28;20203;-82
2021/10/20 08:02:10;;;;;;;7.03;4.53;;;16.60;99.90;;;;;;5052941;28;20283;-82
2021/10/20 08:04:36;;;;;;;6.10;4.20;;;16.70;99.90;;;;;;5034847;28;20211;-82
2021/10/20 08:07:02;;;;;;;6.00;4.57;;;16.70;99.90;;;;;;5034365;28;20548;-81
2021/10/20 08:09:27;;;;;;;6.80;4.40;;;16.80;99.90;;;;;;5035830;28;20671;-82
2021/10/20 08:11:53;;;;;;;8.27;4.47;;;16.90;99.90;;;;;;5035479;28;20275;-82
2021/10/20 08:14:18;;;;;;;7.47;4.10;;;16.90;99.90;;;;;;5034354;28;20187;-82
2021/10/20 08:16:44;;;;;;;6.37;4.80;;;16.90;99.90;;;;;;5034239;28;20185;-82
2021/10/20 08:19:10;;;;;;;6.10;4.27;;;17.00;99.90;;;;;;5034248;28;20219;-81
2021/10/20 08:21:36;;;;;;;6.70;4.07;;;17.00;99.90;;;;;;5050389;28;20458;-81
2021/10/20 08:24:01;;;;;;;6.03;4.77;;;17.00;99.90;;;;;;5035376;28;20161;-82
2021/10/20 08:26:27;;;;;;;5.97;4.13;;;17.00;99.90;;;;;;5035446;28;20644;-83
2021/10/20 08:28:52;;;;;;;5.80;4.37;;;17.00;99.90;;;;;;5034101;28;20267;-82
2021/10/20 08:31:18;;;;;;;6.37;4.60;;;17.00;99.90;;;;;;5034775;28;20208;-82
2021/10/20 08:33:43;;;;;;;6.00;4.87;;;17.00;99.90;;;;;;5035643;28;20200;-83
2021/10/20 08:36:09;;;;;;;5.93;4.20;;;17.00;99.90;;;;;;5034603;28;20210;-81
2021/10/20 08:38:35;;;;;;;7.93;4.77;;;17.10;99.90;;;;;;5051063;28;20200;-81
2021/10/20 08:41:01;;;;;;;6.00;4.07;;;17.10;99.90;;;;;;5034406;28;20648;-82
2021/10/20 08:43:27;;;;;;;5.67;3.97;;;17.20;99.90;;;;;;5034226;28;20172;-83
2021/10/20 08:45:53;;;;;;;6.77;4.53;;;17.30;99.90;;;;;;5034539;28;20498;-83
2021/10/20 08:48:21;;;;;;;5.37;4.17;;;17.50;99.90;;;;;;5035867;28;20169;-82
2021/10/20 08:50:55;;;;;;;6.37;4.43;;;17.50;99.90;;;;;;5036092;28;20248;-83
2021/10/20 08:53:21;;;;;;;5.63;4.27;;;17.50;99.90;;;;;;5036083;28;20405;-82
2021/10/20 08:55:48;;;;;;;5.67;4.57;;;17.50;99.90;;;;;;5034596;28;20423;-82
2021/10/20 08:58:14;;;;;;;5.77;4.10;;;17.50;99.90;;;;;;5034806;28;20443;-82
2021/10/20 09:00:39;;;;;;;9.30;4.50;;;17.60;99.90;;;;;;5035130;28;20454;-81
2021/10/20 09:03:05;;;;;;;8.77;5.10;;;17.60;99.90;;;;;;5034134;28;20579;-81
2021/10/20 09:05:31;;;;;;;6.50;5.00;;;17.60;99.90;;;;;;5034440;28;20177;-82
2021/10/20 09:07:57;;;;;;;6.23;4.20;;;17.60;99.90;;;;;;5034689;28;20173;-83
2021/10/20 09:10:25;;;;;;;5.53;4.30;;;17.50;99.90;;;;;;5034737;28;20427;-82
2021/10/20 09:12:54;;;;;;;4.90;4.20;;;17.60;99.90;;;;;;5050706;28;20446;-83
2021/10/20 09:15:21;;;;;;;6.77;4.37;;;17.60;99.90;;;;;;5033675;28;20477;-82
2021/10/20 09:18:09;;;;;;;5.77;4.07;;;17.60;99.90;;;;;;5034105;28;20464;-82
2021/10/20 09:20:37;;;;;;;6.03;3.67;;;17.70;99.90;;;;;;5050805;28;20423;-81
2021/10/20 09:23:09;;;;;;;7.37;4.73;;;17.80;99.90;;;;;;5035105;28;20455;-82
2021/10/20 09:25:38;;;;;;;5.57;3.53;;;17.90;99.90;;;;;;5050424;28;20419;-82
2021/10/20 09:28:06;;;;;;;5.47;3.93;;;18.00;99.90;;;;;;5034024;28;21008;-82
2021/10/20 09:30:32;;;;;;;5.20;4.07;;;17.90;99.90;;;;;;5077628;22;20517;-79
2021/10/20 09:32:59;;;;;;;4.70;3.83;;;17.90;99.90;;;;;;5035925;28;20411;-79
2021/10/20 09:35:28;;;;;;;6.40;3.83;;;18.00;99.90;;;;;;5034846;28;20231;-78
2021/10/20 09:38:01;;;;;;;5.33;4.37;;;17.90;99.90;;;;;;5035613;28;20411;-78
2021/10/20 09:40:35;;;;;;;7.40;4.53;;;17.80;99.90;;;;;;5034440;28;20876;-78
2021/10/20 09:43:01;;;;;;;9.70;4.77;;;17.90;99.90;;;;;;5034089;28;20963;-78
2021/10/20 09:45:31;;;;;;;6.17;4.70;;;18.00;99.90;;;;;;5033091;28;20456;-78
2021/10/20 09:48:11;;;;;;;5.57;4.17;;;18.10;99.90;;;;;;5032805;28;20422;-78
2021/10/20 09:50:53;;;;;;;7.10;4.33;;;18.20;99.90;;;;;;5032797;28;20513;-77
2021/10/20 09:53:19;;;;;;;5.30;4.30;;;18.10;99.90;;;;;;5032856;28;20768;-78
2021/10/20 09:55:45;;;;;;;5.87;4.40;;;18.30;99.90;;;;;;5033300;28;20454;-78
2021/10/20 09:58:13;;;;;;;10.23;4.70;;;18.30;99.90;;;;;;5033622;28;20451;-78
2021/10/20 10:00:39;;;;;;;5.70;4.13;;;18.40;99.90;;;;;;5034246;28;20555;-78
2021/10/20 10:03:06;;;;;;;6.43;4.87;;;18.30;99.90;;;;;;5032562;28;20485;-78
2021/10/20 10:05:32;;;;;;;7.00;5.20;;;18.30;99.90;;;;;;5027801;28;21040;-78
2021/10/20 10:07:59;;;;;;;6.30;4.97;;;18.20;99.90;;;;;;5026250;28;20452;-78
2021/10/20 10:10:25;;;;;;;8.10;5.07;;;18.10;99.90;;;;;;5013518;28;20443;-79
2021/10/20 10:12:57;;;;;;;6.97;5.03;;;17.90;99.90;;;;;;5013162;28;20427;-78
2021/10/20 10:15:26;;;;;;;7.00;4.40;;;17.80;99.90;;;;;;5021967;28;20469;-74
2021/10/20 10:17:54;;;;;;;6.27;4.60;;;17.80;99.90;;;;;;5021901;28;20452;-79
2021/10/20 10:20:20;;;;;;;5.03;3.80;;;17.80;99.90;;;;;;5029580;28;20470;-78
2021/10/20 10:23:06;;;;;;;4.90;4.03;;;17.70;99.90;;;;;;5032472;28;20438;-78
2021/10/20 10:25:32;;;;;;;7.30;5.10;;;17.60;99.90;;;;;;5033551;28;20545;-78
2021/10/20 10:28:04;;;;;;;6.23;4.83;;;17.40;99.90;;;;;;5033824;28;20501;-79
2021/10/20 10:30:46;;;;;;;8.53;5.50;;;17.30;99.90;;;;;;5033019;28;20203;-78
2021/10/20 10:33:33;;;;;;;6.67;5.33;;;17.30;99.90;;;;;;5033477;28;20433;-77
2021/10/20 10:36:19;;;;;;;6.30;5.13;;;17.30;99.90;;;;;;5027606;28;20459;-77
2021/10/20 10:38:51;;;;;;;6.50;5.40;;;17.30;99.90;;;;;;5028908;28;20498;-79
2021/10/20 10:41:17;;;;;;;7.63;4.57;;;17.30;99.90;;;;;;5030825;28;20447;-78
2021/10/20 10:44:05;;;;;;;6.90;5.47;;;17.20;99.90;;;;;;5033343;28;20427;-77
2021/10/20 10:46:34;;;;;;;7.63;5.60;;;17.30;99.90;;;;;;5032883;28;20446;-77
2021/10/20 10:49:20;;;;;;;6.07;4.80;;;17.30;99.90;;;;;;5033929;28;21004;-78
2021/10/20 10:52:04;;;;;;;7.13;5.33;;;17.30;99.90;;;;;;5033317;28;20457;-78
2021/10/20 10:54:40;;;;;;;8.27;5.60;;;17.30;99.90;;;;;;5033450;28;20458;-77
2021/10/20 10:57:14;;;;;;;6.93;4.90;;;17.30;99.90;;;;;;5034567;28;20430;-78
2021/10/20 10:59:54;;;;;;;6.77;4.90;;;17.40;99.90;;;;;;5032001;28;20583;-78
2021/10/20 11:03:02;;;;;;;6.40;4.70;;;17.60;99.90;;;;;;5014402;28;20415;-77
2021/10/20 11:05:30;;;;;;;7.10;5.50;;;17.70;99.90;;;;;;5013962;28;20440;-77
2021/10/20 11:08:06;;;;;;;6.53;4.80;;;17.70;99.90;;;;;;5014173;28;20435;-78
2021/10/20 11:10:34;;;;;;;7.20;5.10;;;17.80;99.90;;;;;;5013792;28;20478;-79
2021/10/20 11:13:00;;;;;;;6.50;4.47;;;17.70;99.90;;;;;;5013839;28;20491;-78
2021/10/20 11:15:28;;;;;;;6.37;4.50;;;17.80;99.90;;;;;;5013626;28;20501;-78
2021/10/20 11:17:55;;;;;;;7.73;5.13;;;17.70;99.90;;;;;;5013258;28;20420;-78
2021/10/20 11:20:22;;;;;;;8.67;4.90;;;17.80;99.90;;;;;;5013501;28;20526;-77
2021/10/20 11:22:51;;;;;;;7.50;4.83;;;17.90;99.90;;;;;;5011684;28;20930;-78
2021/10/20 11:25:18;;;;;;;7.83;5.10;;;18.00;99.90;;;;;;5012679;28;20954;-79
2021/10/20 11:27:49;;;;;;;5.67;4.30;;;18.00;99.90;;;;;;5013621;28;20423;-78
2021/10/20 11:30:17;;;;;;;7.30;5.87;;;18.10;99.90;;;;;;5013627;28;20448;-77
2021/10/20 11:32:45;;;;;;;16.47;6.40;;;18.10;99.90;;;;;;5011900;28;20462;-79
2021/10/20 11:35:31;;;;;;;6.20;4.83;;;18.20;99.90;;;;;;5012353;28;20990;-79
2021/10/20 11:37:56;;;;;;;8.83;5.23;;;18.20;99.90;;;;;;5011314;28;20947;-78
2021/10/20 11:40:30;;;;;;;6.97;5.00;;;18.20;99.90;;;;;;5011926;28;20506;-78
2021/10/20 11:42:56;;;;;;;5.70;4.50;;;18.20;99.90;;;;;;5012769;28;20239;-78
2021/10/20 11:45:22;;;;;;;6.37;4.50;;;18.20;99.90;;;;;;5013183;28;20950;-78
2021/10/20 11:47:48;;;;;;;8.10;5.10;;;18.20;99.90;;;;;;5013495;28;20208;-78
2021/10/20 11:50:16;;;;;;;8.43;5.50;;;18.20;99.90;;;;;;5013262;28;20424;-78
2021/10/20 11:52:42;;;;;;;8.20;4.60;;;18.20;99.90;;;;;;5013397;28;20512;-78
2021/10/20 11:55:10;;;;;;;4.80;4.00;;;18.30;99.90;;;;;;5013149;28;20452;-78
2021/10/20 11:57:42;;;;;;;6.50;4.47;;;18.30;99.90;;;;;;5013930;28;20424;-77
2021/10/20 12:00:08;;;;;;;6.17;5.00;;;18.40;99.90;;;;;;5013825;28;20966;-79
2021/10/20 12:02:35;;;;;;;8.83;4.90;;;18.40;99.90;;;;;;5012917;28;20796;-78
2021/10/20 12:05:01;;;;;;;6.83;5.20;;;18.50;99.90;;;;;;5013553;28;20848;-79
2021/10/20 12:07:31;;;;;;;5.73;5.07;;;18.50;99.90;;;;;;5013195;28;20431;-78
2021/10/20 12:10:02;;;;;;;6.57;4.83;;;18.50;99.90;;;;;;5014129;28;20735;-77
2021/10/20 12:12:29;;;;;;;6.77;4.80;;;18.50;99.90;;;;;;5012602;28;20450;-78
2021/10/20 12:14:59;;;;;;;6.87;5.30;;;18.50;99.90;;;;;;5012978;28;20510;-78
2021/10/20 12:17:28;;;;;;;6.67;5.20;;;18.60;99.90;;;;;;5013485;28;20428;-78
2021/10/20 12:19:56;;;;;;;6.20;4.43;;;18.80;99.90;;;;;;5013144;28;20475;-77
2021/10/20 12:22:24;;;;;;;5.70;4.80;;;19.00;99.90;;;;;;5012053;28;20482;-78
2021/10/20 12:24:51;;;;;;;6.67;5.10;;;19.00;99.90;;;;;;5019839;28;20449;-78
2021/10/20 12:27:20;;;;;;;5.67;4.30;;;19.10;99.90;;;;;;5043205;28;20478;-78
2021/10/20 12:32:29;;;;;;;6.10;5.40;;;19.20;99.90;;;;;;5121928;27;20551;-76
2021/10/20 12:34:54;;;;;;;5.20;4.70;;;19.30;99.90;;;;;;5088020;28;20954;-77
2021/10/20 12:37:31;;;;;;;5.53;4.53;;;19.40;99.90;;;;;;5088037;28;20420;-77
2021/10/20 12:40:05;;;;;;;6.83;5.50;;;19.40;99.90;;;;;;5087516;28;20218;-76
2021/10/20 12:42:45;;;;;;;6.40;4.67;;;19.40;99.90;;;;;;5087847;28;20421;-77
2021/10/20 12:45:13;;;;;;;6.03;5.30;;;19.40;99.90;;;;;;5087967;28;20478;-77
2021/10/20 12:47:44;;;;;;;7.83;4.93;;;19.30;99.90;;;;;;5088064;28;20408;-77
2021/10/20 12:50:12;;;;;;;11.37;5.33;;;19.10;99.90;;;;;;5087948;28;20408;-77